Time;durP1;ratioP1;P1;durP2;ratioP2;P2;SDS_P1;SDS_P2;PMS_P1;PMS_P2;Temp;Humidity;BMP_temperature;BMP_pressure;BME280_temperature;BME280_humidity;BME280_pressure;Samples;Min_cycle;Max_cycle;Signal;HPM_P1;HPM_P2
2020/12/05 00:01:13;;;;;;;8.87;4.13;;;;;;;;;;5029246;28;20030;-83
2020/12/05 00:03:39;;;;;;;8.00;2.70;;;;;;;;;;5030745;28;20040;-83
2020/12/05 00:06:05;;;;;;;6.43;2.40;;;;;;;;;;5050950;28;20034;-84
2020/12/05 00:08:32;;;;;;;6.47;3.03;;;;;;;;;;5034218;28;20093;-84
2020/12/05 00:10:58;;;;;;;7.67;3.10;;;;;;;;;;5051415;28;20025;-84
2020/12/05 00:13:25;;;;;;;7.20;2.30;;;;;;;;;;5033687;28;20030;-84
2020/12/05 00:15:51;;;;;;;9.30;2.70;;;;;;;;;;5046626;28;20038;-82
2020/12/05 00:18:18;;;;;;;12.43;4.97;;;;;;;;;;5026602;28;20025;-83
2020/12/05 00:20:44;;;;;;;8.53;2.53;;;;;;;;;;5045133;28;20037;-84
2020/12/05 00:23:12;;;;;;;4.37;2.73;;;;;;;;;;5032205;28;20112;-83
2020/12/05 00:25:38;;;;;;;9.13;2.77;;;;;;;;;;5030482;28;20033;-83
2020/12/05 00:28:04;;;;;;;5.13;3.03;;;;;;;;;;5030045;28;20037;-83
2020/12/05 00:30:30;;;;;;;5.47;2.23;;;;;;;;;;5028252;28;20025;-84
2020/12/05 00:33:01;;;;;;;6.93;2.33;;;;;;;;;;5029919;28;20040;-83
2020/12/05 00:35:27;;;;;;;8.47;2.77;;;;;;;;;;5030851;28;20025;-83
2020/12/05 00:37:53;;;;;;;6.40;2.33;;;;;;;;;;5035494;28;20056;-83
2020/12/05 00:40:20;;;;;;;7.60;3.00;;;;;;;;;;5035983;28;20033;-83
2020/12/05 00:42:46;;;;;;;7.87;3.37;;;;;;;;;;5047392;28;20045;-83
2020/12/05 00:45:12;;;;;;;5.90;3.00;;;;;;;;;;5030046;28;20030;-84
2020/12/05 00:47:38;;;;;;;6.17;2.80;;;;;;;;;;5045147;28;20041;-84
2020/12/05 00:50:04;;;;;;;6.17;2.80;;;;;;;;;;5028909;28;20025;-84
2020/12/05 00:52:30;;;;;;;7.93;3.60;;;;;;;;;;5047460;28;20026;-85
2020/12/05 00:54:56;;;;;;;4.93;2.80;;;;;;;;;;5028003;28;20029;-83
2020/12/05 00:57:22;;;;;;;4.57;2.10;;;;;;;;;;5025947;28;20037;-83
2020/12/05 00:59:48;;;;;;;8.33;2.90;;;;;;;;;;5025278;28;20026;-83
2020/12/05 01:02:14;;;;;;;7.70;2.33;;;;;;;;;;5042340;28;20026;-83
2020/12/05 01:04:40;;;;;;;8.97;3.30;;;;;;;;;;5025017;28;20076;-83
2020/12/05 01:07:06;;;;;;;8.70;3.03;;;;;;;;;;5027150;28;20124;-83
2020/12/05 01:09:33;;;;;;;6.27;2.60;;;;;;;;;;5049777;28;20026;-83
2020/12/05 01:11:59;;;;;;;7.27;2.30;;;;;;;;;;5035889;28;20129;-85
2020/12/05 01:14:25;;;;;;;8.00;2.73;;;;;;;;;;5036611;28;20025;-84
2020/12/05 01:16:51;;;;;;;7.73;3.10;;;;;;;;;;5040063;28;20024;-84
2020/12/05 01:19:17;;;;;;;6.37;2.63;;;;;;;;;;5042891;28;20021;-85
2020/12/05 01:21:46;;;;;;;9.07;2.73;;;;;;;;;;5042761;28;20009;-84
2020/12/05 01:24:12;;;;;;;6.17;2.70;;;;;;;;;;5041850;28;20483;-84
2020/12/05 01:26:38;;;;;;;5.33;2.83;;;;;;;;;;5041050;28;20064;-85
2020/12/05 01:29:04;;;;;;;5.33;2.23;;;;;;;;;;5041443;28;20045;-85
2020/12/05 01:31:30;;;;;;;6.03;2.77;;;;;;;;;;5041803;28;20028;-84
2020/12/05 01:34:02;;;;;;;11.00;2.90;;;;;;;;;;5037930;28;20454;-84
2020/12/05 01:36:29;;;;;;;7.27;2.60;;;;;;;;;;5032853;28;20056;-84
2020/12/05 01:38:55;;;;;;;8.87;3.17;;;;;;;;;;5034007;28;20021;-84
2020/12/05 01:41:21;;;;;;;8.33;2.90;;;;;;;;;;5033311;28;20045;-84
2020/12/05 01:43:50;;;;;;;5.93;3.00;;;;;;;;;;5032210;28;20046;-84
2020/12/05 01:46:36;;;;;;;6.17;3.37;;;;;;;;;;5050136;28;20064;-84
2020/12/05 01:49:02;;;;;;;7.67;3.07;;;;;;;;;;5049643;28;20077;-84
2020/12/05 01:51:29;;;;;;;5.00;2.83;;;;;;;;;;5032792;28;20129;-84
2020/12/05 01:53:56;;;;;;;7.90;2.63;;;;;;;;;;5032721;28;20030;-83
2020/12/05 01:56:24;;;;;;;6.07;3.23;;;;;;;;;;5033071;28;20112;-84
2020/12/05 01:58:50;;;;;;;6.33;2.70;;;;;;;;;;5016811;28;20042;-84
2020/12/05 02:01:20;;;;;;;2.90;1.33;;;;;;;;;;5034118;28;20021;-84
2020/12/05 02:03:46;;;;;;;6.17;2.43;;;;;;;;;;5033714;28;20484;-84
2020/12/05 02:06:25;;;;;;;5.67;2.70;;;;;;;;;;5033725;28;20056;-84
2020/12/05 02:08:53;;;;;;;8.00;2.77;;;;;;;;;;5051295;28;20029;-84
2020/12/05 02:11:22;;;;;;;5.77;3.03;;;;;;;;;;5051959;28;20034;-84
2020/12/05 02:13:49;;;;;;;6.40;2.47;;;;;;;;;;5053043;28;20025;-84
2020/12/05 02:16:16;;;;;;;7.33;2.77;;;;;;;;;;5037158;28;20040;-84
2020/12/05 02:18:45;;;;;;;8.43;2.60;;;;;;;;;;5039870;28;20473;-85
2020/12/05 02:21:12;;;;;;;6.00;2.67;;;;;;;;;;5036609;28;20026;-84
2020/12/05 02:23:39;;;;;;;5.57;3.10;;;;;;;;;;5038953;28;20052;-85
2020/12/05 02:26:06;;;;;;;5.93;3.37;;;;;;;;;;5053074;28;20025;-84
2020/12/05 02:28:33;;;;;;;7.93;3.90;;;;;;;;;;5035240;28;20029;-85
2020/12/05 02:30:59;;;;;;;6.57;3.73;;;;;;;;;;5036655;28;20025;-85
2020/12/05 02:33:25;;;;;;;9.70;3.43;;;;;;;;;;5038044;28;20021;-85
2020/12/05 02:35:51;;;;;;;8.23;3.63;;;;;;;;;;5035003;28;20034;-84
2020/12/05 02:38:19;;;;;;;7.67;3.70;;;;;;;;;;5033132;28;20018;-84
2020/12/05 02:40:45;;;;;;;7.93;4.20;;;;;;;;;;5049864;28;20018;-84
2020/12/05 02:43:12;;;;;;;5.43;3.37;;;;;;;;;;5035464;28;20049;-84
2020/12/05 02:45:39;;;;;;;9.93;4.57;;;;;;;;;;5055052;28;20013;-85
2020/12/05 02:48:06;;;;;;;9.27;5.03;;;;;;;;;;5053242;28;20029;-84
2020/12/05 02:50:32;;;;;;;11.07;5.40;;;;;;;;;;5035885;28;20033;-84
2020/12/05 02:52:58;;;;;;;14.30;5.63;;;;;;;;;;5054372;28;20030;-84
2020/12/05 02:55:24;;;;;;;8.67;4.87;;;;;;;;;;5057025;28;20069;-85
2020/12/05 02:57:50;;;;;;;13.57;5.87;;;;;;;;;;5058258;28;20021;-85
2020/12/05 03:00:17;;;;;;;9.10;5.20;;;;;;;;;;5056639;28;20025;-85
2020/12/05 03:02:43;;;;;;;9.37;4.87;;;;;;;;;;5054903;28;20046;-85
2020/12/05 03:05:09;;;;;;;9.10;5.60;;;;;;;;;;5036480;28;20097;-84
2020/12/05 03:07:35;;;;;;;12.53;6.03;;;;;;;;;;5038806;28;20021;-85
2020/12/05 03:10:01;;;;;;;8.93;5.00;;;;;;;;;;5055009;28;20026;-85
2020/12/05 03:12:27;;;;;;;11.30;4.53;;;;;;;;;;5052588;28;20033;-84
2020/12/05 03:14:53;;;;;;;9.10;4.33;;;;;;;;;;5052659;28;20022;-84
2020/12/05 03:17:19;;;;;;;7.27;3.80;;;;;;;;;;5037132;28;20061;-85
2020/12/05 03:19:45;;;;;;;8.73;5.00;;;;;;;;;;5038245;28;20052;-84
2020/12/05 03:22:11;;;;;;;13.60;5.23;;;;;;;;;;5054168;28;20056;-84
2020/12/05 03:24:37;;;;;;;9.33;4.37;;;;;;;;;;5038457;28;20132;-85
2020/12/05 03:27:04;;;;;;;8.83;4.70;;;;;;;;;;5039192;28;20033;-86
2020/12/05 03:29:30;;;;;;;9.83;4.70;;;;;;;;;;5036257;28;20033;-84
2020/12/05 03:32:01;;;;;;;9.27;4.17;;;;;;;;;;5035767;28;20026;-85
2020/12/05 03:34:27;;;;;;;9.03;4.57;;;;;;;;;;5033793;28;20026;-84
2020/12/05 03:36:53;;;;;;;11.27;4.43;;;;;;;;;;5031540;28;20366;-84
2020/12/05 03:39:19;;;;;;;10.27;4.03;;;;;;;;;;5032194;28;20030;-84
2020/12/05 03:41:45;;;;;;;16.43;4.13;;;;;;;;;;5033799;28;20025;-84
2020/12/05 03:44:11;;;;;;;7.07;4.83;;;;;;;;;;5036178;28;20052;-85
2020/12/05 03:46:37;;;;;;;11.20;5.33;;;;;;;;;;5032181;28;20065;-84
2020/12/05 03:49:04;;;;;;;7.47;3.37;;;;;;;;;;5049545;28;20067;-84
2020/12/05 03:51:30;;;;;;;8.33;3.40;;;;;;;;;;5031922;28;20030;-85
2020/12/05 03:53:56;;;;;;;6.43;3.40;;;;;;;;;;5050725;28;20032;-84
2020/12/05 03:56:22;;;;;;;7.10;3.87;;;;;;;;;;5031917;28;20077;-84
2020/12/05 03:58:50;;;;;;;8.17;3.67;;;;;;;;;;5049463;28;20028;-85
2020/12/05 04:01:17;;;;;;;7.27;3.37;;;;;;;;;;5031887;28;20049;-84
2020/12/05 04:03:43;;;;;;;7.17;3.40;;;;;;;;;;5030356;28;20022;-84
2020/12/05 04:06:12;;;;;;;7.60;3.43;;;;;;;;;;5029438;28;20091;-84
2020/12/05 04:08:38;;;;;;;7.20;3.57;;;;;;;;;;5029095;28;20028;-84
2020/12/05 04:11:04;;;;;;;6.60;3.43;;;;;;;;;;5047586;28;20017;-83
2020/12/05 04:13:30;;;;;;;7.70;4.17;;;;;;;;;;5031169;28;20045;-84
2020/12/05 04:15:56;;;;;;;8.30;3.53;;;;;;;;;;5030072;28;20060;-84
2020/12/05 04:18:22;;;;;;;5.80;3.37;;;;;;;;;;5048363;28;20040;-84
2020/12/05 04:20:48;;;;;;;5.30;3.03;;;;;;;;;;5048032;28;20036;-84
2020/12/05 04:23:14;;;;;;;6.57;3.67;;;;;;;;;;5031546;28;20053;-84
2020/12/05 04:25:40;;;;;;;7.87;3.33;;;;;;;;;;5032934;28;20036;-84
2020/12/05 04:28:06;;;;;;;11.03;3.60;;;;;;;;;;5018904;28;20037;-85
2020/12/05 04:30:33;;;;;;;5.30;3.10;;;;;;;;;;5052090;28;20018;-85
2020/12/05 04:32:59;;;;;;;5.90;3.57;;;;;;;;;;5036107;28;20025;-85
2020/12/05 04:35:25;;;;;;;5.63;3.20;;;;;;;;;;5035706;28;20029;-84
2020/12/05 04:37:51;;;;;;;10.13;4.07;;;;;;;;;;5050320;28;20053;-84
2020/12/05 04:40:18;;;;;;;5.03;3.30;;;;;;;;;;5052983;28;20014;-84
2020/12/05 04:42:47;;;;;;;7.03;3.00;;;;;;;;;;5051217;28;20065;-84
2020/12/05 04:45:13;;;;;;;8.00;3.00;;;;;;;;;;5034176;28;20056;-83
2020/12/05 04:47:43;;;;;;;6.57;3.30;;;;;;;;;;5052662;28;20060;-83
2020/12/05 04:50:09;;;;;;;4.90;3.23;;;;;;;;;;5035926;28;20053;-83
2020/12/05 04:52:41;;;;;;;8.57;3.57;;;;;;;;;;5054191;28;20030;-85
2020/12/05 04:55:08;;;;;;;8.93;4.10;;;;;;;;;;5037703;28;20036;-85
2020/12/05 04:57:45;;;;;;;8.43;3.50;;;;;;;;;;5036111;28;20029;-84
2020/12/05 05:00:12;;;;;;;8.37;3.63;;;;;;;;;;5053625;28;20040;-84
2020/12/05 05:02:41;;;;;;;5.90;3.27;;;;;;;;;;5036778;28;20093;-85
2020/12/05 05:05:09;;;;;;;5.67;3.40;;;;;;;;;;5038198;28;20021;-84
2020/12/05 05:07:36;;;;;;;8.47;3.53;;;;;;;;;;5056052;28;20026;-84
2020/12/05 05:10:11;;;;;;;12.20;3.97;;;;;;;;;;5056970;28;20029;-83
2020/12/05 05:12:37;;;;;;;6.33;3.40;;;;;;;;;;5025941;28;20037;-83
2020/12/05 05:15:18;;;;;;;8.23;3.50;;;;;;;;;;5040935;28;20045;-83
2020/12/05 05:17:50;;;;;;;6.47;3.30;;;;;;;;;;5056848;28;20036;-85
2020/12/05 05:20:20;;;;;;;5.10;3.47;;;;;;;;;;5039334;28;20017;-83
2020/12/05 05:22:46;;;;;;;6.47;3.37;;;;;;;;;;5037843;28;20029;-83
2020/12/05 05:25:13;;;;;;;5.63;3.13;;;;;;;;;;5031334;28;20112;-84
2020/12/05 05:27:39;;;;;;;9.80;4.03;;;;;;;;;;5032875;28;20029;-83
2020/12/05 05:30:10;;;;;;;8.33;4.10;;;;;;;;;;5052629;28;20081;-84
2020/12/05 05:32:48;;;;;;;8.20;3.90;;;;;;;;;;5037570;28;20029;-85
2020/12/05 05:35:15;;;;;;;5.80;4.00;;;;;;;;;;5054499;28;20031;-84
2020/12/05 05:37:42;;;;;;;8.63;3.83;;;;;;;;;;5036513;28;20062;-84
2020/12/05 05:40:10;;;;;;;6.67;3.40;;;;;;;;;;5035339;28;20030;-84
2020/12/05 05:42:37;;;;;;;6.63;3.63;;;;;;;;;;5033026;28;20045;-83
2020/12/05 05:45:32;;;;;;;5.43;3.80;;;;;;;;;;5046140;28;20021;-84
2020/12/05 05:48:02;;;;;;;5.97;3.70;;;;;;;;;;5016504;28;20029;-84
2020/12/05 05:50:33;;;;;;;6.27;3.73;;;;;;;;;;5047310;28;20025;-83
2020/12/05 05:53:04;;;;;;;6.23;4.13;;;;;;;;;;5030320;28;20052;-84
2020/12/05 05:55:46;;;;;;;7.07;4.30;;;;;;;;;;5049543;28;20029;-84
2020/12/05 05:58:13;;;;;;;7.27;4.47;;;;;;;;;;5053702;28;20037;-83
2020/12/05 06:00:43;;;;;;;8.67;3.83;;;;;;;;;;5038908;28;20028;-84
2020/12/05 06:03:21;;;;;;;8.43;4.23;;;;;;;;;;5055603;28;20089;-84
2020/12/05 06:05:48;;;;;;;7.77;3.87;;;;;;;;;;5055052;28;20025;-84
2020/12/05 06:08:16;;;;;;;8.90;4.13;;;;;;;;;;5033993;28;20052;-85
2020/12/05 06:10:42;;;;;;;9.50;3.93;;;;;;;;;;5050090;28;20030;-83
2020/12/05 06:13:11;;;;;;;6.90;3.27;;;;;;;;;;5032026;28;20029;-84
2020/12/05 06:15:37;;;;;;;9.70;3.93;;;;;;;;;;5031567;28;20033;-84
2020/12/05 06:18:03;;;;;;;6.60;4.17;;;;;;;;;;5031713;28;20028;-84
2020/12/05 06:20:33;;;;;;;5.60;3.50;;;;;;;;;;5050117;28;20017;-84
2020/12/05 06:23:03;;;;;;;10.10;3.50;;;;;;;;;;5052197;28;20049;-84
2020/12/05 06:25:30;;;;;;;8.50;3.47;;;;;;;;;;5033519;28;20032;-84
2020/12/05 06:27:58;;;;;;;9.53;4.43;;;;;;;;;;5052620;28;20021;-83
2020/12/05 06:30:24;;;;;;;8.17;4.37;;;;;;;;;;5053397;28;20021;-84
2020/12/05 06:32:55;;;;;;;8.57;3.90;;;;;;;;;;5053179;28;20026;-84
2020/12/05 06:35:24;;;;;;;7.67;3.67;;;;;;;;;;5034792;28;20060;-84
2020/12/05 06:37:51;;;;;;;6.87;3.97;;;;;;;;;;5055105;28;20041;-84
2020/12/05 06:40:17;;;;;;;6.50;4.20;;;;;;;;;;5038770;28;20100;-84
2020/12/05 06:42:44;;;;;;;9.13;3.43;;;;;;;;;;5054661;28;20046;-85
2020/12/05 06:45:30;;;;;;;9.37;3.77;;;;;;;;;;5055502;28;20044;-84
2020/12/05 06:48:17;;;;;;;8.73;4.20;;;;;;;;;;5035941;28;20030;-84
2020/12/05 06:50:44;;;;;;;5.33;3.60;;;;;;;;;;5049049;28;20060;-85
2020/12/05 06:53:22;;;;;;;9.77;3.67;;;;;;;;;;5054859;28;20033;-84
2020/12/05 06:55:52;;;;;;;9.77;3.67;;;;;;;;;;5034661;28;20033;-84
2020/12/05 06:58:25;;;;;;;5.60;2.80;;;;;;;;;;5034230;28;20036;-85
2020/12/05 07:00:51;;;;;;;7.70;3.57;;;;;;;;;;5052489;28;20450;-84
2020/12/05 07:03:24;;;;;;;6.07;3.17;;;;;;;;;;5036238;28;20060;-84
2020/12/05 07:05:50;;;;;;;6.23;3.63;;;;;;;;;;5037504;28;20033;-84
2020/12/05 07:08:26;;;;;;;7.20;3.87;;;;;;;;;;5037208;28;20036;-84
2020/12/05 07:10:56;;;;;;;7.57;3.57;;;;;;;;;;5055043;28;20030;-84
2020/12/05 07:13:23;;;;;;;12.13;4.30;;;;;;;;;;5056404;28;20041;-85
2020/12/05 07:15:50;;;;;;;4.17;3.07;;;;;;;;;;5037241;28;20480;-85
2020/12/05 07:18:24;;;;;;;6.27;3.17;;;;;;;;;;5037257;28;20029;-85
2020/12/05 07:20:50;;;;;;;9.20;3.25;;;;;;;;;;5035452;28;20030;-84
2020/12/05 07:23:16;;;;;;;6.50;3.90;;;;;;;;;;5034079;28;20021;-85
2020/12/05 07:25:43;;;;;;;7.17;4.03;;;;;;;;;;5035085;28;20028;-85
2020/12/05 07:28:09;;;;;;;7.57;4.07;;;;;;;;;;5035898;28;20025;-85
2020/12/05 07:30:35;;;;;;;8.23;3.87;;;;;;;;;;5034632;28;20025;-85
2020/12/05 07:33:04;;;;;;;6.67;3.90;;;;;;;;;;5053318;28;20053;-85
2020/12/05 07:35:30;;;;;;;11.50;3.87;;;;;;;;;;5037340;28;20033;-85
2020/12/05 07:37:56;;;;;;;6.50;3.57;;;;;;;;;;5036225;28;20095;-85
2020/12/05 07:40:26;;;;;;;5.10;3.20;;;;;;;;;;5038281;28;20097;-85
2020/12/05 07:42:52;;;;;;;6.73;3.43;;;;;;;;;;5054668;28;20140;-85
2020/12/05 07:45:19;;;;;;;6.80;4.03;;;;;;;;;;5034424;28;20093;-85
2020/12/05 07:47:45;;;;;;;8.07;4.50;;;;;;;;;;5035335;28;20038;-86
2020/12/05 07:50:11;;;;;;;9.73;4.47;;;;;;;;;;5034730;28;20033;-85
2020/12/05 07:52:38;;;;;;;5.40;3.30;;;;;;;;;;5050811;28;20099;-85
2020/12/05 07:55:06;;;;;;;9.20;4.03;;;;;;;;;;5050669;28;20033;-86
2020/12/05 07:57:36;;;;;;;6.97;3.70;;;;;;;;;;5033357;28;20030;-86
2020/12/05 08:00:09;;;;;;;7.93;4.00;;;;;;;;;;5050935;28;20026;-84
2020/12/05 08:02:35;;;;;;;5.80;4.20;;;;;;;;;;5050744;28;20053;-86
2020/12/05 08:05:04;;;;;;;11.57;4.43;;;;;;;;;;5032987;28;20037;-85
2020/12/05 08:07:35;;;;;;;10.47;4.80;;;;;;;;;;5034767;28;20064;-86
2020/12/05 08:10:02;;;;;;;10.73;4.90;;;;;;;;;;5035270;28;20030;-86
2020/12/05 08:12:41;;;;;;;10.90;5.03;;;;;;;;;;5034257;28;20037;-85
2020/12/05 08:15:08;;;;;;;8.43;4.53;;;;;;;;;;5033072;28;20022;-86
2020/12/05 08:17:36;;;;;;;8.50;5.33;;;;;;;;;;5033417;28;20064;-85
2020/12/05 08:20:03;;;;;;;7.87;5.00;;;;;;;;;;5034057;28;20025;-85
2020/12/05 08:22:31;;;;;;;14.73;5.00;;;;;;;;;;5018807;28;20033;-86
2020/12/05 08:24:57;;;;;;;8.37;5.13;;;;;;;;;;5053715;28;20021;-86
2020/12/05 08:27:23;;;;;;;9.70;5.17;;;;;;;;;;5037571;28;20073;-86
2020/12/05 08:29:50;;;;;;;10.83;5.20;;;;;;;;;;5038215;28;20044;-85
2020/12/05 08:32:23;;;;;;;11.03;5.90;;;;;;;;;;5037005;28;20013;-84
2020/12/05 08:34:50;;;;;;;10.80;6.30;;;;;;;;;;5037373;28;20048;-85
2020/12/05 08:37:22;;;;;;;7.80;5.50;;;;;;;;;;5037086;28;20029;-85
2020/12/05 08:39:50;;;;;;;10.63;6.07;;;;;;;;;;5036599;28;20528;-84
2020/12/05 08:42:16;;;;;;;11.43;6.50;;;;;;;;;;5034619;28;20036;-84
2020/12/05 08:44:43;;;;;;;9.10;5.30;;;;;;;;;;5034605;28;20057;-84
2020/12/05 08:47:09;;;;;;;10.40;6.20;;;;;;;;;;5035263;28;20030;-85
2020/12/05 08:49:36;;;;;;;8.20;5.47;;;;;;;;;;5036832;28;20025;-85
2020/12/05 08:52:03;;;;;;;12.47;5.57;;;;;;;;;;5036328;28;20032;-85
2020/12/05 08:54:29;;;;;;;11.77;5.70;;;;;;;;;;5054377;28;20022;-85
2020/12/05 08:57:08;;;;;;;9.17;6.20;;;;;;;;;;5035294;28;20036;-84
2020/12/05 08:59:34;;;;;;;6.70;4.77;;;;;;;;;;5048498;28;20382;-83
2020/12/05 09:02:00;;;;;;;11.30;5.60;;;;;;;;;;5029396;28;20101;-83
2020/12/05 09:04:31;;;;;;;10.90;6.43;;;;;;;;;;5048737;28;20032;-85
2020/12/05 09:07:07;;;;;;;13.10;7.13;;;;;;;;;;5033722;28;20057;-84
2020/12/05 09:09:33;;;;;;;10.17;6.37;;;;;;;;;;5050748;28;20030;-83
2020/12/05 09:12:22;;;;;;;16.77;8.70;;;;;;;;;;5047696;28;20033;-78
2020/12/05 09:14:48;;;;;;;9.33;6.83;;;;;;;;;;5013085;28;20032;-79
2020/12/05 09:17:21;;;;;;;14.07;7.73;;;;;;;;;;5026762;28;20033;-83
2020/12/05 09:19:47;;;;;;;11.97;7.10;;;;;;;;;;5049125;28;20032;-83
2020/12/05 09:22:33;;;;;;;12.60;7.73;;;;;;;;;;5030445;28;20025;-83
2020/12/05 09:24:59;;;;;;;13.33;8.90;;;;;;;;;;5013479;28;20025;-83
2020/12/05 09:27:38;;;;;;;15.57;7.57;;;;;;;;;;5030231;28;20037;-83
2020/12/05 09:30:10;;;;;;;13.00;9.37;;;;;;;;;;5014892;28;20032;-83
2020/12/05 09:32:44;;;;;;;16.40;10.20;;;;;;;;;;5034491;28;20022;-82
2020/12/05 09:35:10;;;;;;;14.07;7.37;;;;;;;;;;5053830;28;20030;-83
2020/12/05 09:37:36;;;;;;;12.93;8.23;;;;;;;;;;5024163;28;20042;-84
2020/12/05 09:40:04;;;;;;;12.37;8.43;;;;;;;;;;5059374;28;20037;-84
2020/12/05 09:42:30;;;;;;;9.27;7.23;;;;;;;;;;5040117;28;20058;-84
2020/12/05 09:44:56;;;;;;;14.10;7.43;;;;;;;;;;5041111;28;20068;-84
2020/12/05 09:47:22;;;;;;;12.57;8.13;;;;;;;;;;5034830;28;20041;-84
2020/12/05 09:49:48;;;;;;;15.33;9.30;;;;;;;;;;5051119;28;20021;-84
2020/12/05 09:52:14;;;;;;;15.50;8.63;;;;;;;;;;5016790;28;20083;-83
2020/12/05 09:54:40;;;;;;;17.37;8.90;;;;;;;;;;5033041;28;20033;-82
2020/12/05 09:57:07;;;;;;;12.60;8.10;;;;;;;;;;5020716;28;20037;-83
2020/12/05 09:59:33;;;;;;;14.03;9.00;;;;;;;;;;5021841;28;20033;-84
2020/12/05 10:02:03;;;;;;;14.33;9.50;;;;;;;;;;5038492;28;20036;-84
2020/12/05 10:04:29;;;;;;;15.37;8.13;;;;;;;;;;5058812;28;20026;-84
2020/12/05 10:06:55;;;;;;;10.93;8.77;;;;;;;;;;5024039;28;20034;-83
2020/12/05 10:09:21;;;;;;;13.83;9.13;;;;;;;;;;5034741;28;20033;-83
2020/12/05 10:11:47;;;;;;;13.87;8.90;;;;;;;;;;5036741;28;20045;-84
2020/12/05 10:14:13;;;;;;;12.93;8.67;;;;;;;;;;5056284;28;20459;-84
2020/12/05 10:16:39;;;;;;;13.03;8.40;;;;;;;;;;5022480;28;20034;-84
2020/12/05 10:19:05;;;;;;;18.77;9.93;;;;;;;;;;5038431;28;20030;-83
2020/12/05 10:21:31;;;;;;;14.17;9.67;;;;;;;;;;5039529;28;20034;-85
2020/12/05 10:23:57;;;;;;;16.47;8.30;;;;;;;;;;5056654;28;20033;-85
2020/12/05 10:26:23;;;;;;;15.07;9.23;;;;;;;;;;5040386;28;20055;-84
2020/12/05 10:28:49;;;;;;;17.27;10.80;;;;;;;;;;5039557;28;20037;-84
2020/12/05 10:31:15;;;;;;;15.03;9.70;;;;;;;;;;5039830;28;20029;-84
2020/12/05 10:33:41;;;;;;;16.87;9.70;;;;;;;;;;5056921;28;20033;-85
2020/12/05 10:36:07;;;;;;;12.87;10.07;;;;;;;;;;5022922;28;20021;-84
2020/12/05 10:38:33;;;;;;;14.43;8.53;;;;;;;;;;5023462;28;20041;-83
2020/12/05 10:40:59;;;;;;;11.43;7.40;;;;;;;;;;5036301;28;20048;-84
2020/12/05 10:43:25;;;;;;;11.80;7.57;;;;;;;;;;5030159;28;20041;-83
2020/12/05 10:45:51;;;;;;;14.40;6.73;;;;;;;;;;5047610;28;20036;-83
2020/12/05 10:48:17;;;;;;;11.50;6.00;;;;;;;;;;5032102;28;20097;-83
2020/12/05 10:50:42;;;;;;;10.23;6.70;;;;;;;;;;5019049;28;20061;-84
2020/12/05 10:53:08;;;;;;;11.77;7.13;;;;;;;;;;5034450;28;20069;-83
2020/12/05 10:55:34;;;;;;;12.97;7.97;;;;;;;;;;5028467;28;20036;-84
2020/12/05 10:58:00;;;;;;;11.13;8.40;;;;;;;;;;5030296;28;20045;-83
2020/12/05 11:00:26;;;;;;;10.90;7.77;;;;;;;;;;5034485;28;20026;-84
2020/12/05 11:02:52;;;;;;;10.27;6.63;;;;;;;;;;5054172;28;20025;-85
2020/12/05 11:05:18;;;;;;;10.70;8.50;;;;;;;;;;5035382;28;20076;-84
2020/12/05 11:07:44;;;;;;;11.27;6.73;;;;;;;;;;5038617;28;20072;-84
2020/12/05 11:10:10;;;;;;;10.80;7.00;;;;;;;;;;5035702;28;20112;-83
2020/12/05 11:12:39;;;;;;;11.13;6.80;;;;;;;;;;5037326;28;20049;-84
2020/12/05 11:15:05;;;;;;;12.47;6.33;;;;;;;;;;5037049;28;20030;-84
2020/12/05 11:17:31;;;;;;;19.17;7.13;;;;;;;;;;5019793;28;20033;-85
2020/12/05 11:19:57;;;;;;;9.90;7.33;;;;;;;;;;5036891;28;20052;-84
2020/12/05 11:22:24;;;;;;;12.27;6.10;;;;;;;;;;5036970;28;20010;-84
2020/12/05 11:24:50;;;;;;;9.53;6.47;;;;;;;;;;5036121;28;20040;-84
2020/12/05 11:27:16;;;;;;;6.17;3.57;;;;;;;;;;5035163;28;20033;-85
2020/12/05 11:29:42;;;;;;;10.90;6.00;;;;;;;;;;5038383;28;20056;-84
2020/12/05 11:32:08;;;;;;;11.63;6.47;;;;;;;;;;5054470;28;20038;-84
2020/12/05 11:34:34;;;;;;;9.60;5.87;;;;;;;;;;5034896;28;20029;-84
2020/12/05 11:36:59;;;;;;;10.23;6.13;;;;;;;;;;5050735;28;20112;-83
2020/12/05 11:39:25;;;;;;;9.27;5.67;;;;;;;;;;5051430;28;20041;-83
2020/12/05 11:41:52;;;;;;;11.23;5.97;;;;;;;;;;5019943;28;20021;-84
2020/12/05 11:44:18;;;;;;;9.53;5.73;;;;;;;;;;5034929;28;20058;-84
2020/12/05 11:46:44;;;;;;;7.87;5.47;;;;;;;;;;5018050;28;20038;-84
2020/12/05 11:49:10;;;;;;;7.27;5.30;;;;;;;;;;5017770;28;20045;-85
2020/12/05 11:51:38;;;;;;;7.60;3.70;;;;;;;;;;5033909;28;20481;-85
2020/12/05 11:54:04;;;;;;;9.47;5.50;;;;;;;;;;5026462;28;20037;-83
2020/12/05 11:56:30;;;;;;;14.47;7.73;;;;;;;;;;5027767;28;20033;-83
2020/12/05 11:58:56;;;;;;;9.30;5.10;;;;;;;;;;5029911;28;20026;-83
2020/12/05 12:01:22;;;;;;;7.77;4.40;;;;;;;;;;5030723;28;20030;-84
2020/12/05 12:03:48;;;;;;;9.27;4.57;;;;;;;;;;5034946;28;20076;-83
2020/12/05 12:06:19;;;;;;;8.27;4.10;;;;;;;;;;5016636;28;20033;-81
2020/12/05 12:08:45;;;;;;;10.77;3.53;;;;;;;;;;5012754;28;20032;-83
2020/12/05 12:11:15;;;;;;;7.10;3.63;;;;;;;;;;5031232;28;20053;-84
2020/12/05 12:13:41;;;;;;;10.90;4.50;;;;;;;;;;5035329;28;20025;-82
2020/12/05 12:16:07;;;;;;;6.97;3.47;;;;;;;;;;5026523;28;20041;-82
2020/12/05 12:18:33;;;;;;;7.83;3.90;;;;;;;;;;5010635;28;20030;-84
2020/12/05 12:20:59;;;;;;;23.50;5.57;;;;;;;;;;5010755;28;20040;-83
2020/12/05 12:23:25;;;;;;;6.10;3.83;;;;;;;;;;5027674;28;20026;-83
2020/12/05 12:25:52;;;;;;;85.43;12.00;;;;;;;;;;5009353;28;20037;-83
2020/12/05 12:28:18;;;;;;;7.80;3.73;;;;;;;;;;5008319;28;20385;-83
2020/12/05 12:30:45;;;;;;;7.60;3.67;;;;;;;;;;5013685;28;20030;-82
2020/12/05 12:33:11;;;;;;;8.53;4.30;;;;;;;;;;5033026;28;20030;-85
2020/12/05 12:35:37;;;;;;;7.33;3.60;;;;;;;;;;5016239;28;20125;-83
2020/12/05 12:38:03;;;;;;;12.67;4.00;;;;;;;;;;5033152;28;20038;-84
2020/12/05 12:40:29;;;;;;;10.87;4.03;;;;;;;;;;5017739;28;20060;-85
2020/12/05 12:42:57;;;;;;;7.00;3.83;;;;;;;;;;5039076;28;20057;-86
2020/12/05 12:45:28;;;;;;;7.07;3.60;;;;;;;;;;5053155;28;20031;-85
2020/12/05 12:50:36;;;;;;;8.57;3.47;;;;;;;;;;5056800;28;20073;-85
2020/12/05 12:53:02;;;;;;;7.53;4.17;;;;;;;;;;5020545;28;20032;-84
2020/12/05 12:55:28;;;;;;;5.83;3.50;;;;;;;;;;5038947;28;20026;-85
2020/12/05 12:57:59;;;;;;;11.57;4.07;;;;;;;;;;5023362;28;20035;-85
2020/12/05 13:00:25;;;;;;;6.20;3.57;;;;;;;;;;5023177;28;20064;-85
2020/12/05 13:02:51;;;;;;;9.27;4.03;;;;;;;;;;5038234;28;20026;-85
2020/12/05 13:05:17;;;;;;;9.77;3.50;;;;;;;;;;5026092;28;20013;-85
2020/12/05 13:07:43;;;;;;;8.63;3.93;;;;;;;;;;5044922;28;20010;-85
2020/12/05 13:10:09;;;;;;;7.77;3.70;;;;;;;;;;5028112;28;20014;-85
2020/12/05 13:12:35;;;;;;;8.20;3.83;;;;;;;;;;5028235;28;20029;-85
2020/12/05 13:15:01;;;;;;;6.77;3.30;;;;;;;;;;5028162;28;20025;-85
2020/12/05 13:17:27;;;;;;;5.97;3.43;;;;;;;;;;5028424;28;20028;-85
2020/12/05 13:19:53;;;;;;;11.33;4.07;;;;;;;;;;5044590;28;20018;-84
2020/12/05 13:22:19;;;;;;;6.10;3.43;;;;;;;;;;5044709;28;20040;-85
2020/12/05 13:24:45;;;;;;;11.97;3.53;;;;;;;;;;5027835;28;20034;-85
2020/12/05 13:27:11;;;;;;;10.87;3.20;;;;;;;;;;5028459;28;20029;-85
2020/12/05 13:29:39;;;;;;;6.20;3.47;;;;;;;;;;5028726;28;20036;-85
2020/12/05 13:32:05;;;;;;;8.90;3.77;;;;;;;;;;5044728;28;20005;-83
2020/12/05 13:34:31;;;;;;;4.10;3.10;;;;;;;;;;5044597;28;20018;-85
2020/12/05 13:36:57;;;;;;;7.67;3.80;;;;;;;;;;5061643;28;20044;-85
2020/12/05 13:39:23;;;;;;;6.37;3.47;;;;;;;;;;5044007;28;20017;-86
2020/12/05 13:41:52;;;;;;;9.13;3.93;;;;;;;;;;5026140;28;20041;-85
2020/12/05 13:44:18;;;;;;;10.77;3.73;;;;;;;;;;5025833;28;20049;-84
2020/12/05 13:46:44;;;;;;;5.87;3.00;;;;;;;;;;5061167;28;20017;-86
2020/12/05 13:49:10;;;;;;;7.30;3.50;;;;;;;;;;5028540;28;20014;-85
2020/12/05 13:51:36;;;;;;;7.13;3.70;;;;;;;;;;5045146;28;20020;-86
2020/12/05 13:54:02;;;;;;;8.57;3.30;;;;;;;;;;5028504;28;20014;-86
2020/12/05 13:56:32;;;;;;;6.83;3.23;;;;;;;;;;5044680;28;20049;-86
2020/12/05 13:58:58;;;;;;;5.27;2.40;;;;;;;;;;5044483;28;20085;-85
2020/12/05 14:01:24;;;;;;;4.77;3.47;;;;;;;;;;5061424;28;20056;-81
2020/12/05 14:03:50;;;;;;;4.60;2.80;;;;;;;;;;5061541;28;20064;-86
2020/12/05 14:06:16;;;;;;;9.30;3.63;;;;;;;;;;5044154;28;20026;-85
2020/12/05 14:08:42;;;;;;;7.10;4.60;;;;;;;;;;5061062;28;20036;-84
2020/12/05 14:11:08;;;;;;;7.30;2.60;;;;;;;;;;5028091;28;20033;-85
2020/12/05 14:13:34;;;;;;;6.73;3.30;;;;;;;;;;5043995;28;20069;-85
2020/12/05 14:16:01;;;;;;;7.77;3.13;;;;;;;;;;5042920;28;20006;-83
2020/12/05 14:18:27;;;;;;;7.80;2.53;;;;;;;;;;5044190;28;20033;-85
2020/12/05 14:20:53;;;;;;;4.27;2.77;;;;;;;;;;5044290;28;20061;-85
2020/12/05 14:23:19;;;;;;;7.13;2.93;;;;;;;;;;5028198;28;20010;-85
2020/12/05 14:25:46;;;;;;;7.40;4.03;;;;;;;;;;5027888;28;20036;-85
2020/12/05 14:28:12;;;;;;;6.07;2.93;;;;;;;;;;5519843;22;20037;-85
2020/12/05 14:30:38;;;;;;;4.57;2.10;;;;;;;;;;5061533;28;20013;-85
2020/12/05 14:33:04;;;;;;;5.97;2.40;;;;;;;;;;5043171;28;20033;-85
2020/12/05 14:35:30;;;;;;;7.27;3.30;;;;;;;;;;5042638;28;20029;-85
2020/12/05 14:37:56;;;;;;;4.97;3.00;;;;;;;;;;5042527;28;20045;-85
2020/12/05 14:40:22;;;;;;;7.03;2.63;;;;;;;;;;5042763;28;20017;-85
2020/12/05 14:42:49;;;;;;;6.97;3.03;;;;;;;;;;5042472;28;20040;-85